Time;durP1;ratioP1;P1;durP2;ratioP2;P2;SDS_P1;SDS_P2;PMS_P1;PMS_P2;Temp;Humidity;BMP_temperature;BMP_pressure;BME280_temperature;BME280_humidity;BME280_pressure;Samples;Min_cycle;Max_cycle;Signal;HPM_P1;HPM_P2
2023/07/10 00:01:46;;;;;;;7.40;4.68;;;23.40;99.90;;;;;;5080743;28;20024;-71
2023/07/10 00:04:18;;;;;;;5.75;4.68;;;23.30;99.90;;;;;;5081036;28;20036;-71
2023/07/10 00:06:45;;;;;;;11.65;5.40;;;23.40;99.90;;;;;;5082723;28;20099;-70
2023/07/10 00:09:10;;;;;;;9.13;5.40;;;23.30;99.90;;;;;;5083265;28;20024;-71
2023/07/10 00:11:36;;;;;;;9.05;4.55;;;23.30;99.90;;;;;;5081447;28;20031;-71
2023/07/10 00:14:15;;;;;;;9.25;4.70;;;23.20;99.90;;;;;;5078907;28;20025;-71
2023/07/10 00:16:40;;;;;;;8.82;5.18;;;23.20;99.90;;;;;;5086236;28;20032;-71
2023/07/10 00:19:11;;;;;;;7.45;5.50;;;23.20;99.90;;;;;;5089584;28;20132;-71
2023/07/10 00:21:36;;;;;;;11.23;5.43;;;23.30;99.90;;;;;;5083963;28;20067;-71
2023/07/10 00:24:02;;;;;;;8.18;4.90;;;23.30;99.90;;;;;;5079536;28;20033;-71
2023/07/10 00:26:28;;;;;;;6.43;5.03;;;23.30;99.90;;;;;;5082559;28;20532;-71
2023/07/10 00:28:56;;;;;;;8.60;4.80;;;23.20;99.90;;;;;;5087596;28;20157;-71
2023/07/10 00:31:26;;;;;;;8.13;5.70;;;23.30;99.90;;;;;;5079886;28;20028;-72
2023/07/10 00:33:53;;;;;;;9.18;5.60;;;23.20;99.90;;;;;;5079493;28;20107;-71
2023/07/10 00:36:29;;;;;;;9.30;5.75;;;23.20;99.90;;;;;;5084823;28;20370;-69
2023/07/10 00:38:56;;;;;;;12.95;5.68;;;23.20;99.90;;;;;;5077876;28;20028;-71
2023/07/10 00:41:29;;;;;;;10.80;5.60;;;23.20;99.90;;;;;;5082381;28;20039;-71
2023/07/10 00:44:03;;;;;;;11.70;6.80;;;23.20;99.90;;;;;;5085876;28;20036;-71
2023/07/10 00:46:38;;;;;;;13.90;6.60;;;23.20;99.90;;;;;;5087797;28;20028;-71
2023/07/10 00:49:17;;;;;;;14.05;6.88;;;23.20;99.90;;;;;;5077922;28;20520;-71
2023/07/10 00:52:06;;;;;;;12.38;7.35;;;23.20;99.90;;;;;;5081783;28;20027;-70
2023/07/10 00:54:44;;;;;;;11.65;7.32;;;23.20;99.90;;;;;;5081460;28;20028;-71
2023/07/10 00:57:17;;;;;;;8.38;5.28;;;23.20;99.90;;;;;;5081228;28;20032;-71
2023/07/10 00:59:43;;;;;;;12.02;7.15;;;23.20;99.90;;;;;;5078500;28;20028;-71
2023/07/10 01:02:12;;;;;;;12.93;8.57;;;23.20;99.90;;;;;;5082481;28;20020;-70
2023/07/10 01:04:41;;;;;;;11.02;8.77;;;23.10;99.90;;;;;;5083286;28;20032;-71
2023/07/10 01:07:12;;;;;;;18.20;9.25;;;23.00;99.90;;;;;;5082695;28;20032;-71
2023/07/10 01:09:41;;;;;;;10.05;8.55;;;23.00;99.90;;;;;;5086435;28;20021;-71
2023/07/10 01:12:07;;;;;;;14.25;9.85;;;22.90;99.90;;;;;;5082094;28;20020;-71
2023/07/10 01:14:34;;;;;;;18.85;9.60;;;23.00;99.90;;;;;;5083195;28;20028;-71
2023/07/10 01:17:01;;;;;;;12.77;9.93;;;22.90;99.90;;;;;;5078316;28;20082;-71
2023/07/10 01:19:28;;;;;;;18.42;10.77;;;22.90;99.90;;;;;;5079975;28;20051;-70
2023/07/10 01:21:54;;;;;;;18.02;11.50;;;22.90;99.90;;;;;;5075972;28;20027;-71
2023/07/10 01:24:20;;;;;;;18.15;11.48;;;22.80;99.90;;;;;;5085770;28;20040;-71
2023/07/10 01:26:45;;;;;;;18.38;11.20;;;22.80;99.90;;;;;;5088613;28;20047;-71
2023/07/10 01:29:25;;;;;;;14.82;11.43;;;22.80;99.90;;;;;;5086916;28;20102;-71
2023/07/10 01:31:52;;;;;;;15.27;11.57;;;22.70;99.90;;;;;;5079806;28;20476;-71
2023/07/10 01:34:20;;;;;;;17.15;12.02;;;22.80;99.90;;;;;;5077567;28;20028;-70
2023/07/10 01:36:48;;;;;;;15.82;11.05;;;22.70;99.90;;;;;;5081062;28;20680;-71
2023/07/10 01:39:13;;;;;;;24.08;13.55;;;22.70;99.90;;;;;;5078960;28;20028;-71
2023/07/10 01:41:44;;;;;;;18.17;12.73;;;22.70;99.90;;;;;;5081487;28;20036;-71
2023/07/10 01:44:29;;;;;;;15.98;12.02;;;22.70;99.90;;;;;;5081836;28;20549;-71
2023/07/10 01:46:56;;;;;;;20.27;12.82;;;22.70;99.90;;;;;;5078742;28;20111;-71
2023/07/10 01:49:41;;;;;;;18.10;12.80;;;22.60;99.90;;;;;;5079503;28;20030;-71
2023/07/10 01:52:09;;;;;;;16.17;12.88;;;22.70;99.90;;;;;;5077493;28;20028;-70
2023/07/10 01:54:35;;;;;;;19.27;13.07;;;22.60;99.90;;;;;;5080955;28;20407;-71
2023/07/10 01:57:01;;;;;;;21.08;14.70;;;22.60;99.90;;;;;;5083635;28;20066;-71
2023/07/10 01:59:27;;;;;;;18.73;15.07;;;22.60;99.90;;;;;;5077701;28;20060;-71
2023/07/10 02:01:56;;;;;;;17.08;13.88;;;22.60;99.90;;;;;;5078935;28;20484;-71
2023/07/10 02:04:22;;;;;;;21.63;14.27;;;22.60;99.90;;;;;;5079969;28;20505;-71
2023/07/10 02:06:48;;;;;;;21.38;14.40;;;22.60;99.90;;;;;;5083880;28;20111;-71
2023/07/10 02:09:14;;;;;;;21.40;14.88;;;22.50;99.90;;;;;;5078811;28;20052;-71
2023/07/10 02:11:39;;;;;;;22.67;14.93;;;22.50;99.90;;;;;;5075703;28;20472;-71
2023/07/10 02:14:06;;;;;;;18.75;14.88;;;22.50;99.90;;;;;;5075669;28;20059;-71
2023/07/10 02:16:32;;;;;;;21.05;13.43;;;22.50;99.90;;;;;;5081576;28;20025;-71
2023/07/10 02:18:59;;;;;;;23.77;15.68;;;22.50;99.90;;;;;;5083269;28;20024;-71
2023/07/10 02:21:25;;;;;;;19.65;15.40;;;22.40;99.90;;;;;;5079103;28;20078;-71
2023/07/10 02:23:51;;;;;;;20.20;14.88;;;22.40;99.90;;;;;;5080407;28;20037;-71
2023/07/10 02:26:17;;;;;;;19.42;14.25;;;22.40;99.90;;;;;;5079953;28;20039;-71
2023/07/10 02:28:44;;;;;;;21.33;15.23;;;22.40;99.90;;;;;;5084059;28;20511;-71
2023/07/10 02:31:10;;;;;;;21.05;15.25;;;22.40;99.90;;;;;;5077944;28;20024;-71
2023/07/10 02:33:36;;;;;;;20.33;16.30;;;22.40;99.90;;;;;;5080421;28;20020;-71
2023/07/10 02:36:02;;;;;;;19.70;15.45;;;22.30;99.90;;;;;;5077638;28;20082;-71
2023/07/10 02:38:28;;;;;;;19.85;15.05;;;22.30;99.90;;;;;;5079750;28;20389;-71
2023/07/10 02:40:55;;;;;;;19.73;15.23;;;22.30;99.90;;;;;;5074093;28;20032;-71
2023/07/10 02:43:21;;;;;;;21.67;15.82;;;22.30;99.90;;;;;;5079286;28;20123;-71
2023/07/10 02:45:47;;;;;;;23.02;15.07;;;22.20;99.90;;;;;;5087540;28;20154;-71
2023/07/10 02:48:12;;;;;;;18.50;14.80;;;22.20;99.90;;;;;;5083155;28;20035;-70
2023/07/10 02:50:38;;;;;;;21.20;16.38;;;22.10;99.90;;;;;;5085124;28;20024;-70
2023/07/10 02:53:04;;;;;;;18.75;15.13;;;22.20;99.90;;;;;;5076404;28;20191;-70
2023/07/10 02:55:29;;;;;;;20.30;15.50;;;22.20;99.90;;;;;;5078751;28;20099;-71
2023/07/10 02:57:55;;;;;;;22.20;15.20;;;22.20;99.90;;;;;;5087327;28;20476;-70
2023/07/10 03:00:21;;;;;;;19.65;14.75;;;22.20;99.90;;;;;;5077239;28;20024;-70
2023/07/10 03:02:46;;;;;;;18.10;14.75;;;22.10;99.90;;;;;;5081787;28;20490;-71
2023/07/10 03:05:12;;;;;;;22.33;15.10;;;22.10;99.90;;;;;;5084604;28;20044;-70
2023/07/10 03:07:38;;;;;;;20.73;15.23;;;22.10;99.90;;;;;;5086189;28;20031;-70
2023/07/10 03:10:04;;;;;;;21.08;14.68;;;22.10;99.90;;;;;;5086785;28;20380;-70
2023/07/10 03:12:30;;;;;;;17.27;13.43;;;22.10;99.90;;;;;;5081061;28;20024;-71
2023/07/10 03:14:56;;;;;;;21.45;14.88;;;22.10;99.90;;;;;;5084532;28;20093;-70
2023/07/10 03:17:22;;;;;;;19.52;14.95;;;22.10;99.90;;;;;;5085255;28;20036;-71
2023/07/10 03:19:47;;;;;;;17.75;14.88;;;22.00;99.90;;;;;;5084810;28;20028;-70
2023/07/10 03:22:13;;;;;;;18.52;15.25;;;22.00;99.90;;;;;;5082579;28;20122;-70
2023/07/10 03:24:39;;;;;;;19.85;13.20;;;22.00;99.90;;;;;;5085224;28;20046;-70
2023/07/10 03:27:05;;;;;;;19.38;12.88;;;22.00;99.90;;;;;;5081998;28;20031;-70
2023/07/10 03:29:31;;;;;;;18.75;14.32;;;22.00;99.90;;;;;;5082394;28;20106;-70
2023/07/10 03:31:57;;;;;;;19.95;14.45;;;22.00;99.90;;;;;;5082219;28;20551;-71
2023/07/10 03:34:22;;;;;;;21.52;14.60;;;21.90;99.90;;;;;;5087874;28;20059;-70
2023/07/10 03:36:50;;;;;;;19.35;13.32;;;21.90;99.90;;;;;;5090574;28;20024;-70
2023/07/10 03:39:16;;;;;;;16.08;13.75;;;21.90;99.90;;;;;;5082927;28;20035;-71
2023/07/10 03:41:41;;;;;;;21.60;14.25;;;21.90;99.90;;;;;;5083929;28;20024;-70
2023/07/10 03:44:09;;;;;;;21.63;16.25;;;21.90;99.90;;;;;;5084268;28;20119;-70
2023/07/10 03:46:35;;;;;;;18.23;13.93;;;21.90;99.90;;;;;;5082481;28;20082;-70
2023/07/10 03:49:01;;;;;;;19.08;14.13;;;21.80;99.90;;;;;;5080654;28;20020;-70
2023/07/10 03:51:26;;;;;;;18.50;14.52;;;21.80;99.90;;;;;;5083051;28;20464;-70
2023/07/10 03:53:52;;;;;;;22.67;14.43;;;21.80;99.90;;;;;;5084137;28;20028;-71
2023/07/10 03:56:18;;;;;;;19.00;13.68;;;21.70;99.90;;;;;;5080237;28;20025;-71
2023/07/10 03:58:45;;;;;;;19.83;15.38;;;21.70;99.90;;;;;;5079829;28;20036;-71
2023/07/10 04:01:11;;;;;;;22.38;15.02;;;21.70;99.90;;;;;;5080639;28;20101;-71
2023/07/10 04:03:38;;;;;;;18.05;15.00;;;21.70;99.90;;;;;;5082893;28;20047;-71
2023/07/10 04:06:08;;;;;;;19.75;13.85;;;21.60;99.90;;;;;;5080939;28;20017;-71
2023/07/10 04:08:37;;;;;;;16.08;13.10;;;21.60;99.90;;;;;;5078239;28;20055;-71
2023/07/10 04:11:05;;;;;;;17.35;13.45;;;21.60;99.90;;;;;;5085460;28;20024;-71
2023/07/10 04:13:31;;;;;;;16.23;13.30;;;21.60;99.90;;;;;;5082009;28;20028;-71
2023/07/10 04:16:09;;;;;;;19.67;12.73;;;21.60;99.90;;;;;;5082819;28;20020;-71
2023/07/10 04:18:37;;;;;;;25.48;14.50;;;21.50;99.90;;;;;;5084254;28;20028;-71
2023/07/10 04:21:06;;;;;;;19.75;12.93;;;21.50;99.90;;;;;;5082412;28;20020;-71
2023/07/10 04:23:32;;;;;;;16.70;12.90;;;21.50;99.90;;;;;;5081694;28;20036;-71
2023/07/10 04:25:58;;;;;;;19.65;12.48;;;21.50;99.90;;;;;;5085020;28;20031;-71
2023/07/10 04:28:24;;;;;;;13.93;11.57;;;21.50;99.90;;;;;;5081894;28;20434;-71
2023/07/10 04:30:51;;;;;;;14.52;10.88;;;21.50;99.90;;;;;;5078856;28;20024;-71
2023/07/10 04:33:18;;;;;;;17.38;11.20;;;21.50;99.90;;;;;;5082835;28;20036;-71
2023/07/10 04:35:54;;;;;;;16.50;11.45;;;21.50;99.90;;;;;;5084736;28;20028;-71
2023/07/10 04:38:23;;;;;;;11.43;10.20;;;21.50;99.90;;;;;;5082953;28;20639;-71
2023/07/10 04:40:56;;;;;;;14.55;11.23;;;21.50;99.90;;;;;;5086851;28;20416;-71
2023/07/10 04:43:24;;;;;;;15.75;10.18;;;21.50;99.90;;;;;;5080441;28;20059;-71
2023/07/10 04:45:51;;;;;;;14.27;8.82;;;21.50;99.90;;;;;;5084256;28;20469;-71
2023/07/10 04:48:17;;;;;;;13.00;9.38;;;21.50;99.90;;;;;;5087445;28;20027;-71
2023/07/10 04:50:48;;;;;;;15.02;10.52;;;21.50;99.90;;;;;;5084266;28;20097;-71
2023/07/10 04:53:14;;;;;;;13.80;10.13;;;21.50;99.90;;;;;;5085285;28;20037;-71
2023/07/10 04:55:40;;;;;;;14.23;10.07;;;21.50;99.90;;;;;;5084231;28;20024;-71
2023/07/10 04:58:06;;;;;;;20.88;10.00;;;21.50;99.90;;;;;;5085706;28;20040;-71
2023/07/10 05:00:32;;;;;;;15.75;9.95;;;21.60;99.90;;;;;;5079863;28;20551;-71
2023/07/10 05:02:57;;;;;;;15.55;9.80;;;21.60;99.90;;;;;;5078830;28;20111;-71
2023/07/10 05:05:23;;;;;;;14.25;9.27;;;21.50;99.90;;;;;;5082909;28;20119;-71
2023/07/10 05:07:48;;;;;;;12.15;8.95;;;21.50;99.90;;;;;;5080650;28;20533;-71
2023/07/10 05:10:14;;;;;;;12.25;8.15;;;21.50;99.90;;;;;;5081992;28;20032;-71
2023/07/10 05:12:40;;;;;;;12.05;8.48;;;21.50;99.90;;;;;;5082557;28;20101;-71
2023/07/10 05:15:06;;;;;;;13.65;7.43;;;21.50;99.90;;;;;;5078236;28;20055;-71
2023/07/10 05:17:31;;;;;;;10.23;6.60;;;21.50;99.90;;;;;;5077182;28;20390;-71
2023/07/10 05:19:57;;;;;;;11.75;7.43;;;21.50;99.90;;;;;;5081103;28;20024;-71
2023/07/10 05:22:23;;;;;;;11.02;7.50;;;21.50;99.90;;;;;;5084246;28;20043;-71
2023/07/10 05:24:48;;;;;;;10.82;7.68;;;21.50;99.90;;;;;;5077537;28;20033;-71
2023/07/10 05:27:14;;;;;;;12.10;8.48;;;21.50;99.90;;;;;;5075550;28;20042;-71
2023/07/10 05:29:40;;;;;;;12.55;8.00;;;21.60;99.90;;;;;;5079462;28;20428;-71
2023/07/10 05:32:06;;;;;;;14.80;7.20;;;21.50;99.90;;;;;;5088634;28;20029;-71
2023/07/10 05:34:31;;;;;;;14.70;7.78;;;21.50;99.90;;;;;;5077007;28;20506;-71
2023/07/10 05:36:57;;;;;;;9.43;7.07;;;21.50;99.90;;;;;;5080976;28;20024;-71
2023/07/10 05:39:23;;;;;;;15.30;9.20;;;21.50;99.90;;;;;;5088713;28;20400;-71
2023/07/10 05:41:49;;;;;;;9.65;6.82;;;21.50;99.90;;;;;;5079604;28;20031;-71
2023/07/10 05:44:14;;;;;;;11.35;7.38;;;21.50;99.90;;;;;;5079515;28;20412;-71
2023/07/10 05:46:40;;;;;;;10.05;6.88;;;21.50;99.90;;;;;;5081887;28;20063;-71
2023/07/10 05:49:06;;;;;;;12.80;6.60;;;21.50;99.90;;;;;;5080220;28;20385;-71
2023/07/10 05:51:32;;;;;;;14.85;6.90;;;21.60;99.90;;;;;;5079692;28;20388;-71
2023/07/10 05:53:58;;;;;;;12.32;5.30;;;21.50;99.90;;;;;;5086526;28;20028;-71
2023/07/10 05:56:23;;;;;;;7.68;4.88;;;21.50;99.90;;;;;;5085057;28;20039;-71
2023/07/10 05:58:52;;;;;;;12.13;6.20;;;21.50;99.90;;;;;;5080235;28;20111;-71
2023/07/10 06:01:18;;;;;;;8.38;5.75;;;21.50;99.90;;;;;;5076847;28;20167;-71
2023/07/10 06:03:44;;;;;;;13.25;6.20;;;21.50;99.90;;;;;;5072993;28;20549;-71
2023/07/10 06:06:10;;;;;;;14.77;6.13;;;21.40;99.90;;;;;;5082461;28;20031;-71
2023/07/10 06:08:37;;;;;;;13.95;6.05;;;21.50;99.90;;;;;;5089792;28;20119;-71
2023/07/10 06:11:03;;;;;;;10.63;5.80;;;21.50;99.90;;;;;;5079616;28;20016;-71
2023/07/10 06:13:30;;;;;;;11.73;6.20;;;21.60;99.90;;;;;;5079814;28;20032;-72
2023/07/10 06:15:57;;;;;;;11.27;5.45;;;21.60;99.90;;;;;;5079602;28;20024;-72
2023/07/10 06:18:24;;;;;;;10.07;4.88;;;21.50;99.90;;;;;;5077912;28;20016;-72
2023/07/10 06:20:54;;;;;;;8.90;5.07;;;21.50;99.90;;;;;;5078573;28;20472;-72
2023/07/10 06:23:21;;;;;;;10.55;4.43;;;21.60;99.90;;;;;;5086426;28;20025;-71
2023/07/10 06:25:47;;;;;;;10.48;4.60;;;21.60;99.90;;;;;;5076081;28;20522;-72
2023/07/10 06:28:14;;;;;;;8.93;4.75;;;21.60;99.90;;;;;;5079792;28;20028;-72
2023/07/10 06:30:52;;;;;;;8.60;4.47;;;21.70;99.90;;;;;;5077129;28;20044;-72
2023/07/10 06:33:17;;;;;;;6.78;3.83;;;21.70;99.90;;;;;;5082166;28;20028;-70
2023/07/10 06:35:43;;;;;;;5.50;3.75;;;21.70;99.90;;;;;;5078922;28;20465;-71
2023/07/10 06:38:09;;;;;;;9.90;4.25;;;21.50;99.90;;;;;;5083198;28;20369;-71
2023/07/10 06:40:34;;;;;;;8.00;3.63;;;21.50;99.90;;;;;;5080311;28;20035;-71
2023/07/10 06:43:00;;;;;;;8.60;4.43;;;21.60;99.90;;;;;;5083044;28;20389;-71
2023/07/10 06:45:25;;;;;;;7.13;3.88;;;21.50;99.90;;;;;;5082408;28;20037;-71
2023/07/10 06:47:51;;;;;;;7.13;3.60;;;21.60;99.90;;;;;;5077369;28;20035;-71
2023/07/10 06:50:17;;;;;;;8.10;3.10;;;21.60;99.90;;;;;;5082711;28;20032;-71
2023/07/10 06:52:44;;;;;;;7.38;3.25;;;21.60;99.90;;;;;;5080493;28;20025;-71
2023/07/10 06:55:15;;;;;;;6.78;3.03;;;21.70;99.90;;;;;;5080484;28;20024;-71
2023/07/10 06:57:41;;;;;;;7.18;3.15;;;21.80;99.90;;;;;;5084534;28;20028;-71
2023/07/10 07:00:10;;;;;;;8.38;3.17;;;21.90;99.90;;;;;;5079427;28;20028;-70
2023/07/10 07:02:36;;;;;;;5.78;3.33;;;22.00;99.90;;;;;;5083649;28;20047;-71
2023/07/10 07:05:06;;;;;;;7.70;3.13;;;22.00;99.90;;;;;;5083400;28;20040;-71
2023/07/10 07:07:32;;;;;;;7.00;2.83;;;22.10;99.90;;;;;;5084519;28;20025;-71
2023/07/10 07:09:58;;;;;;;9.02;2.75;;;22.20;99.90;;;;;;5083267;28;20036;-71
2023/07/10 07:12:24;;;;;;;7.82;3.10;;;22.30;99.90;;;;;;5083681;28;20029;-71
2023/07/10 07:14:50;;;;;;;4.70;2.78;;;22.30;99.90;;;;;;5082696;28;20130;-71
2023/07/10 07:17:16;;;;;;;8.90;2.90;;;22.40;99.90;;;;;;5083907;28;20119;-71
2023/07/10 07:19:42;;;;;;;9.45;3.17;;;22.40;99.90;;;;;;5083592;28;20468;-73
2023/07/10 07:22:07;;;;;;;9.02;2.92;;;22.50;99.90;;;;;;5078288;28;20025;-71
2023/07/10 07:24:33;;;;;;;9.50;2.88;;;22.50;99.90;;;;;;5082124;28;20123;-71
2023/07/10 07:26:59;;;;;;;8.32;3.13;;;22.60;99.90;;;;;;5084302;28;20028;-71
2023/07/10 07:29:26;;;;;;;9.25;2.85;;;22.80;99.90;;;;;;5089123;28;20051;-71
2023/07/10 07:31:52;;;;;;;8.07;2.50;;;22.90;99.90;;;;;;5080575;28;20020;-71
2023/07/10 07:34:18;;;;;;;7.78;2.53;;;23.00;99.90;;;;;;5081407;28;20024;-71
2023/07/10 07:36:44;;;;;;;9.30;2.78;;;23.00;99.90;;;;;;5084888;28;20031;-71
2023/07/10 07:39:09;;;;;;;11.10;2.90;;;23.10;99.90;;;;;;5087701;28;20031;-71
2023/07/10 07:41:35;;;;;;;7.18;2.70;;;23.20;99.90;;;;;;5077910;28;20032;-71
2023/07/10 07:44:01;;;;;;;6.07;2.65;;;23.20;99.90;;;;;;5084542;28;20033;-71
2023/07/10 07:46:29;;;;;;;8.07;2.67;;;23.40;99.90;;;;;;5083068;28;20020;-72
2023/07/10 07:48:55;;;;;;;6.75;2.33;;;23.50;99.90;;;;;;5081806;28;20032;-72
2023/07/10 07:51:21;;;;;;;9.10;2.75;;;23.60;99.90;;;;;;5080860;28;20024;-72
2023/07/10 07:53:47;;;;;;;4.47;2.72;;;23.70;99.90;;;;;;5084456;28;20538;-71
2023/07/10 07:56:12;;;;;;;9.07;2.47;;;23.80;99.90;;;;;;5082986;28;20035;-71
2023/07/10 07:58:38;;;;;;;8.05;2.47;;;23.70;99.90;;;;;;5078221;28;20044;-72
2023/07/10 08:01:04;;;;;;;8.95;2.30;;;23.80;99.90;;;;;;5077689;28;20086;-71
2023/07/10 08:03:31;;;;;;;6.75;2.55;;;23.80;99.90;;;;;;5090422;28;20587;-71
2023/07/10 08:05:57;;;;;;;4.03;2.17;;;23.90;99.90;;;;;;5081326;28;20055;-71
2023/07/10 08:08:23;;;;;;;4.53;2.38;;;24.00;99.90;;;;;;5077235;28;20056;-72
2023/07/10 08:10:50;;;;;;;6.95;2.78;;;24.10;99.90;;;;;;5088772;28;20082;-72
2023/07/10 08:13:18;;;;;;;6.07;2.63;;;24.00;99.90;;;;;;5080753;28;20021;-72
2023/07/10 08:15:44;;;;;;;6.70;2.47;;;24.20;99.90;;;;;;5082123;28;20074;-71
2023/07/10 08:18:10;;;;;;;8.55;2.50;;;24.20;99.90;;;;;;5084218;28;20032;-71
2023/07/10 08:20:36;;;;;;;6.65;2.50;;;24.30;99.90;;;;;;5085214;28;20550;-71
2023/07/10 08:23:04;;;;;;;6.97;2.33;;;24.30;99.90;;;;;;5081952;28;20054;-71
2023/07/10 08:25:30;;;;;;;6.30;2.35;;;24.40;99.90;;;;;;5087541;28;20093;-72
2023/07/10 08:27:59;;;;;;;4.75;2.80;;;24.50;99.90;;;;;;5079835;28;20484;-72
2023/07/10 08:30:26;;;;;;;6.13;2.30;;;24.50;99.90;;;;;;5079055;28;20072;-72
2023/07/10 08:32:51;;;;;;;8.07;2.63;;;24.60;99.90;;;;;;5086596;28;20024;-72
2023/07/10 08:35:17;;;;;;;4.70;2.08;;;24.70;99.90;;;;;;5075601;28;20033;-72
2023/07/10 08:37:43;;;;;;;8.38;2.63;;;24.70;99.90;;;;;;5080480;28;20024;-71
2023/07/10 08:40:16;;;;;;;7.68;2.67;;;24.80;99.90;;;;;;5078567;28;20480;-72
2023/07/10 08:42:43;;;;;;;8.20;2.40;;;24.90;99.90;;;;;;5078343;28;20076;-71
2023/07/10 08:45:15;;;;;;;7.80;2.38;;;25.00;99.90;;;;;;5082040;28;20136;-72
2023/07/10 08:47:46;;;;;;;5.93;2.70;;;25.10;99.90;;;;;;5083203;28;20021;-72
2023/07/10 08:50:23;;;;;;;9.95;2.40;;;25.20;99.90;;;;;;5077548;28;20541;-72
2023/07/10 08:53:00;;;;;;;6.13;2.33;;;25.40;99.90;;;;;;5081403;28;20028;-71
2023/07/10 08:55:42;;;;;;;6.78;2.70;;;25.40;99.90;;;;;;5081903;28;20079;-72
2023/07/10 08:58:19;;;;;;;6.93;2.33;;;25.60;99.90;;;;;;5091293;28;20480;-72
2023/07/10 09:00:46;;;;;;;11.18;3.08;;;25.80;99.90;;;;;;5082511;28;20156;-71
2023/07/10 09:03:21;;;;;;;7.90;2.88;;;25.80;99.90;;;;;;5080822;28;20080;-72
2023/07/10 09:05:50;;;;;;;8.07;2.25;;;25.90;99.90;;;;;;5084281;28;20083;-71
2023/07/10 09:08:18;;;;;;;7.30;2.25;;;26.10;99.90;;;;;;5080112;28;20040;-72
2023/07/10 09:10:47;;;;;;;7.38;2.50;;;26.10;99.90;;;;;;5079833;28;20029;-72
2023/07/10 09:13:33;;;;;;;5.45;2.22;;;26.10;99.90;;;;;;5085856;28;20122;-71
2023/07/10 09:15:59;;;;;;;6.85;2.42;;;26.20;99.90;;;;;;5085689;28;20077;-71
2023/07/10 09:19:05;;;;;;;5.65;2.28;;;26.30;99.90;;;;;;5079795;28;20442;-72
2023/07/10 09:21:34;;;;;;;7.93;2.22;;;26.50;99.90;;;;;;5077454;28;20119;-71
2023/07/10 09:24:02;;;;;;;7.38;2.28;;;26.70;99.90;;;;;;5082313;28;20035;-73
2023/07/10 09:26:30;;;;;;;5.10;1.60;;;26.80;99.90;;;;;;5081717;28;20024;-72
2023/07/10 09:29:10;;;;;;;3.72;1.38;;;26.80;99.90;;;;;;5079963;28;20036;-72
2023/07/10 09:31:54;;;;;;;4.47;1.70;;;26.90;99.90;;;;;;5083798;28;20032;-71
2023/07/10 09:34:27;;;;;;;6.70;1.98;;;27.00;99.90;;;;;;5083031;28;20031;-72
2023/07/10 09:36:55;;;;;;;5.05;1.75;;;27.00;99.90;;;;;;5081120;28;20020;-73
2023/07/10 09:39:26;;;;;;;3.17;1.45;;;27.20;99.90;;;;;;5080673;28;20028;-71
2023/07/10 09:41:51;;;;;;;4.60;1.38;;;27.30;99.90;;;;;;5081342;28;20024;-72
2023/07/10 09:44:20;;;;;;;5.18;1.88;;;27.40;99.90;;;;;;5081773;28;20046;-71
2023/07/10 09:46:46;;;;;;;3.63;1.42;;;27.40;99.90;;;;;;5082446;28;20031;-71
2023/07/10 09:49:23;;;;;;;3.25;1.70;;;27.50;99.90;;;;;;5081281;28;20033;-72
2023/07/10 09:52:00;;;;;;;6.65;1.85;;;27.70;99.90;;;;;;5080853;28;20027;-72
2023/07/10 09:54:37;;;;;;;5.07;1.63;;;27.70;99.90;;;;;;5083364;28;20028;-73
2023/07/10 09:57:09;;;;;;;6.43;1.60;;;27.90;99.90;;;;;;5086226;28;20485;-72
2023/07/10 09:59:35;;;;;;;;;;;27.90;99.90;;;;;;5080254;28;20496;-72
2023/07/10 10:02:32;;;;;;;5.55;1.75;;;28.00;99.90;;;;;;5066226;28;19927;-72
2023/07/10 10:05:08;;;;;;;4.72;1.33;;;28.10;99.90;;;;;;5085647;28;20027;-72
2023/07/10 10:07:40;;;;;;;4.53;2.03;;;28.20;99.90;;;;;;5101469;28;20492;-71
2023/07/10 10:10:32;;;;;;;;;;;28.10;99.90;;;;;;5097031;28;20058;-71
2023/07/10 10:13:03;;;;;;;6.70;1.63;;;28.10;99.90;;;;;;5093153;28;19943;-72
2023/07/10 10:16:03;;;;;;;4.30;1.95;;;28.20;99.90;;;;;;5098322;28;20435;-73
2023/07/10 10:18:53;;;;;;;8.73;2.28;;;28.20;99.90;;;;;;5096286;28;20085;-72
2023/07/10 10:21:20;;;;;;;8.50;2.08;;;28.30;99.90;;;;;;5095083;28;20028;-71
2023/07/10 10:23:48;;;;;;;3.08;1.58;;;28.40;99.90;;;;;;5101145;28;20035;-72
2023/07/10 10:26:25;;;;;;;5.43;2.03;;;28.50;99.90;;;;;;5105388;28;20169;-71
2023/07/10 10:29:05;;;;;;;5.03;1.95;;;28.60;99.90;;;;;;5102499;28;20027;-71
2023/07/10 10:31:41;;;;;;;5.03;1.80;;;28.60;99.90;;;;;;5100467;28;20032;-72
2023/07/10 10:34:39;;;;;;;5.47;1.90;;;28.70;99.90;;;;;;5100871;28;20016;-72
2023/07/10 10:37:18;;;;;;;9.93;2.55;;;28.60;99.90;;;;;;5086915;28;20083;-71
2023/07/10 10:39:53;;;;;;;3.92;1.60;;;28.70;99.90;;;;;;5098963;28;20058;-71
2023/07/10 10:42:37;;;;;;;4.85;1.73;;;28.70;99.90;;;;;;5102082;28;20077;-71
2023/07/10 10:45:26;;;;;;;8.05;1.73;;;28.90;99.90;;;;;;5101493;28;20054;-71
2023/07/10 10:48:04;;;;;;;5.60;1.90;;;28.90;99.90;;;;;;5094367;28;20095;-72
2023/07/10 10:50:48;;;;;;;4.07;1.88;;;29.00;99.90;;;;;;5098139;28;20094;-72
2023/07/10 10:53:46;;;;;;;6.07;2.15;;;29.00;99.90;;;;;;5095776;28;20109;-72
2023/07/10 10:56:41;;;;;;;5.38;2.00;;;29.20;99.90;;;;;;5071904;28;20039;-71
2023/07/10 10:59:36;;;;;;;3.65;1.90;;;29.30;99.90;;;;;;5080496;28;20043;-71
2023/07/10 11:02:41;;;;;;;6.20;2.10;;;29.60;99.90;;;;;;5102987;28;20019;-71
2023/07/10 11:05:31;;;;;;;4.55;2.10;;;29.50;99.90;;;;;;5090111;28;20504;-71
2023/07/10 11:07:59;;;;;;;4.25;1.60;;;29.70;99.90;;;;;;5102328;28;20045;-72
2023/07/10 11:10:31;;;;;;;5.80;2.00;;;29.60;99.90;;;;;;5091325;28;20089;-71
2023/07/10 11:12:58;;;;;;;7.20;2.20;;;29.70;99.90;;;;;;5100574;28;20492;-71
2023/07/10 11:15:26;;;;;;;5.05;1.73;;;29.80;99.90;;;;;;5100245;28;20024;-73
2023/07/10 11:17:54;;;;;;;5.20;2.15;;;29.80;99.90;;;;;;5098169;28;20121;-71
2023/07/10 11:20:23;;;;;;;8.35;1.90;;;29.60;99.90;;;;;;5098842;28;20019;-72
2023/07/10 11:22:54;;;;;;;5.00;1.77;;;29.30;99.90;;;;;;5098084;28;20393;-71
2023/07/10 11:25:39;;;;;;;4.93;1.63;;;28.90;99.90;;;;;;5099727;28;20028;-71
2023/07/10 11:28:20;;;;;;;4.53;1.65;;;28.70;99.90;;;;;;5091908;28;20136;-72
2023/07/10 11:30:46;;;;;;;7.47;1.85;;;28.90;99.90;;;;;;5101578;28;20041;-72
2023/07/10 11:33:20;;;;;;;5.13;1.55;;;28.70;99.90;;;;;;5098687;28;20019;-72
2023/07/10 11:36:20;;;;;;;4.80;1.58;;;28.80;99.90;;;;;;5102311;28;20089;-72
2023/07/10 11:39:09;;;;;;;5.75;2.33;;;28.50;99.90;;;;;;5073816;28;20640;-72
2023/07/10 11:41:44;;;;;;;4.68;1.55;;;28.60;99.90;;;;;;5101469;28;20384;-73
2023/07/10 11:44:27;;;;;;;5.43;1.60;;;28.70;99.90;;;;;;5099576;28;20041;-73
2023/07/10 11:47:05;;;;;;;5.07;1.90;;;28.90;99.90;;;;;;5096486;28;20020;-73
2023/07/10 11:49:40;;;;;;;7.20;1.98;;;29.00;99.90;;;;;;5094008;28;20024;-73
2023/07/10 11:52:14;;;;;;;5.38;1.65;;;29.10;99.90;;;;;;5091734;28;20029;-70
2023/07/10 11:54:42;;;;;;;6.55;2.03;;;29.00;99.90;;;;;;5093776;28;20034;-70
2023/07/10 11:57:11;;;;;;;6.00;1.80;;;29.20;99.90;;;;;;5094169;28;20023;-71
2023/07/10 11:59:46;;;;;;;4.57;2.10;;;29.60;99.90;;;;;;5100532;28;20019;-70
2023/07/10 12:02:45;;;;;;;3.90;1.38;;;29.80;99.90;;;;;;5090358;28;20051;-70
2023/07/10 12:05:16;;;;;;;6.85;1.60;;;29.30;99.90;;;;;;5097829;28;20039;-71
2023/07/10 12:08:06;;;;;;;3.80;2.03;;;29.00;99.90;;;;;;5086177;28;20016;-71
2023/07/10 12:10:37;;;;;;;4.68;1.50;;;29.00;99.90;;;;;;5093536;28;20077;-71
2023/07/10 12:13:16;;;;;;;6.03;1.77;;;29.10;99.90;;;;;;5092877;28;20028;-71
2023/07/10 12:15:44;;;;;;;4.47;1.85;;;29.30;99.90;;;;;;5092682;28;20059;-70
2023/07/10 12:18:13;;;;;;;5.47;2.22;;;29.50;99.90;;;;;;5100637;28;20035;-70
2023/07/10 12:20:39;;;;;;;7.63;2.10;;;29.80;99.90;;;;;;5091788;28;20024;-72
2023/07/10 12:23:13;;;;;;;4.03;1.65;;;29.50;99.90;;;;;;5094876;28;20035;-71
2023/07/10 12:25:47;;;;;;;2.90;1.70;;;29.40;99.90;;;;;;5097358;28;20085;-71
2023/07/10 12:28:15;;;;;;;2.67;1.20;;;29.10;99.70;;;;;;5094520;28;20028;-71
2023/07/10 12:30:46;;;;;;;4.55;2.08;;;29.00;99.90;;;;;;5099854;27;20040;-71
2023/07/10 12:33:37;;;;;;;4.80;2.05;;;28.70;99.70;;;;;;5099065;28;20683;-70
2023/07/10 12:36:26;;;;;;;7.32;1.77;;;28.70;99.90;;;;;;5099269;28;20027;-71
2023/07/10 12:38:56;;;;;;;6.93;2.10;;;29.00;99.90;;;;;;5089779;28;20028;-71
2023/07/10 12:41:23;;;;;;;5.22;1.88;;;29.30;99.90;;;;;;5096988;28;20034;-71
2023/07/10 12:43:56;;;;;;;6.32;2.25;;;29.50;99.90;;;;;;5088694;28;20024;-70
2023/07/10 12:46:25;;;;;;;9.13;2.58;;;29.70;99.90;;;;;;5096591;28;20035;-71
2023/07/10 12:49:01;;;;;;;4.72;1.90;;;30.00;99.70;;;;;;5092735;28;20035;-71
2023/07/10 12:51:38;;;;;;;8.00;1.85;;;30.20;99.90;;;;;;5095038;28;20027;-70
2023/07/10 12:54:30;;;;;;;2.95;1.73;;;30.30;99.90;;;;;;5102362;28;20025;-70
2023/07/10 12:56:56;;;;;;;4.43;1.77;;;30.30;98.20;;;;;;5101467;28;20035;-70